VPBSS ZSHC-ZJHK
Flight info
| Callsign | VPBSS |
|---|---|
| Flight time | 2h 8m |
| Altitude | 36100 |
| Route | ELNEX A599 PLT W19 NOMAR W18 NLG W23 ZUH R200 BIGRO G221 GIVIV W605 DOMGO |
| Aircraft | A359/H-SDE2E3FGILRWXY/LB1D1 |
Departure
| Time | 2026-05-08 13:02 |
|---|---|
| Airport | Hangzhou Xiaoshan International Airport (ZSHC) |
Arrival
| Time | 2026-05-08 15:10 |
|---|---|
| Airport | Haikou Meilan International Airport (ZJHK) |
| Time | Latitude | Longitude | Altitude | Speed | Heading |
|---|---|---|---|---|---|
| 2026-05-08 12:22 | 30.23816 | 120.43642 | 37 ft | 0 kts | 60° |
| 2026-05-08 12:54 | 30.23825 | 120.43660 | 37 ft | 8 kts | 62° |
| 2026-05-08 12:54 | 30.23821 | 120.43762 | 38 ft | 17 kts | 140° |
| 2026-05-08 12:54 | 30.23694 | 120.43837 | 38 ft | 22 kts | 153° |
| 2026-05-08 12:54 | 30.23592 | 120.43897 | 38 ft | 15 kts | 154° |
| 2026-05-08 12:55 | 30.23491 | 120.43942 | 38 ft | 15 kts | 182° |
| 2026-05-08 12:55 | 30.23427 | 120.43872 | 38 ft | 14 kts | 241° |
| 2026-05-08 12:55 | 30.23377 | 120.43759 | 38 ft | 18 kts | 243° |
| 2026-05-08 12:55 | 30.23315 | 120.43619 | 38 ft | 21 kts | 243° |
| 2026-05-08 12:56 | 30.23242 | 120.43457 | 38 ft | 24 kts | 243° |
| 2026-05-08 12:56 | 30.23166 | 120.43286 | 38 ft | 25 kts | 243° |
| 2026-05-08 12:56 | 30.23083 | 120.43099 | 38 ft | 27 kts | 243° |
| 2026-05-08 12:56 | 30.22994 | 120.42897 | 38 ft | 26 kts | 243° |
| 2026-05-08 12:57 | 30.22908 | 120.42705 | 38 ft | 28 kts | 243° |
| 2026-05-08 12:57 | 30.22816 | 120.42496 | 38 ft | 29 kts | 244° |
| 2026-05-08 12:57 | 30.22723 | 120.42284 | 38 ft | 30 kts | 243° |
| 2026-05-08 12:57 | 30.22623 | 120.42060 | 38 ft | 31 kts | 243° |
| 2026-05-08 12:58 | 30.22545 | 120.41886 | 38 ft | 16 kts | 243° |
| 2026-05-08 12:58 | 30.22499 | 120.41783 | 38 ft | 12 kts | 243° |
| 2026-05-08 12:58 | 30.22457 | 120.41695 | 38 ft | 12 kts | 232° |
| 2026-05-08 12:58 | 30.22403 | 120.41681 | 38 ft | 6 kts | 166° |
| 2026-05-08 12:59 | 30.22375 | 120.41695 | 38 ft | 2 kts | 154° |
| 2026-05-08 13:00 | 30.22372 | 120.41697 | 38 ft | 2 kts | 154° |
| 2026-05-08 13:00 | 30.22341 | 120.41715 | 38 ft | 8 kts | 152° |
| 2026-05-08 13:00 | 30.22272 | 120.41758 | 36 ft | 14 kts | 150° |
| 2026-05-08 13:00 | 30.22251 | 120.41859 | 36 ft | 13 kts | 65° |
| 2026-05-08 13:01 | 30.22259 | 120.41876 | 35 ft | 0 kts | 64° |
| 2026-05-08 13:01 | 30.22289 | 120.41945 | 37 ft | 40 kts | 63° |
| 2026-05-08 13:02 | 30.22539 | 120.42509 | 40 ft | 115 kts | 63° |
| 2026-05-08 13:02 | 30.23002 | 120.43557 | 100 ft | 170 kts | 64° |
| 2026-05-08 13:02 | 30.23497 | 120.44809 | 821 ft | 173 kts | 69° |
| 2026-05-08 13:02 | 30.23794 | 120.46170 | 1646 ft | 175 kts | 81° |
| 2026-05-08 13:03 | 30.23806 | 120.47589 | 2351 ft | 187 kts | 96° |
| 2026-05-08 13:03 | 30.23609 | 120.49192 | 2681 ft | 217 kts | 98° |
| 2026-05-08 13:03 | 30.23392 | 120.51042 | 3052 ft | 245 kts | 97° |
| 2026-05-08 13:03 | 30.23204 | 120.53062 | 3735 ft | 257 kts | 96° |
| 2026-05-08 13:04 | 30.23005 | 120.55136 | 4555 ft | 263 kts | 99° |
| 2026-05-08 13:04 | 30.22341 | 120.57118 | 5374 ft | 267 kts | 125° |
| 2026-05-08 13:04 | 30.20980 | 120.58528 | 6248 ft | 270 kts | 150° |
| 2026-05-08 13:04 | 30.19288 | 120.59564 | 7169 ft | 273 kts | 154° |
| 2026-05-08 13:05 | 30.17516 | 120.60309 | 8070 ft | 277 kts | 169° |
| 2026-05-08 13:05 | 30.15595 | 120.60263 | 8892 ft | 279 kts | 194° |
| 2026-05-08 13:05 | 30.13870 | 120.59250 | 9403 ft | 282 kts | 221° |
| 2026-05-08 13:05 | 30.12704 | 120.57449 | 9574 ft | 283 kts | 246° |
| 2026-05-08 13:06 | 30.11891 | 120.55378 | 9582 ft | 284 kts | 245° |
| 2026-05-08 13:06 | 30.11036 | 120.53308 | 9584 ft | 285 kts | 244° |
| 2026-05-08 13:06 | 30.10157 | 120.51254 | 9584 ft | 285 kts | 243° |
| 2026-05-08 13:06 | 30.09265 | 120.49206 | 9585 ft | 285 kts | 243° |
| 2026-05-08 13:07 | 30.08367 | 120.47164 | 9676 ft | 286 kts | 243° |
| 2026-05-08 13:07 | 30.07459 | 120.45110 | 10206 ft | 289 kts | 243° |
| 2026-05-08 13:07 | 30.06542 | 120.43041 | 11170 ft | 290 kts | 243° |
| 2026-05-08 13:07 | 30.05616 | 120.40954 | 12135 ft | 292 kts | 243° |
| 2026-05-08 13:08 | 30.04681 | 120.38850 | 12983 ft | 299 kts | 243° |
| 2026-05-08 13:08 | 30.03700 | 120.36650 | 13427 ft | 318 kts | 243° |
| 2026-05-08 13:08 | 30.02665 | 120.34334 | 13795 ft | 338 kts | 243° |
| 2026-05-08 13:08 | 30.01556 | 120.31852 | 14163 ft | 357 kts | 243° |
| 2026-05-08 13:09 | 30.00388 | 120.29240 | 14519 ft | 375 kts | 243° |
| 2026-05-08 13:09 | 29.99165 | 120.26510 | 14853 ft | 391 kts | 243° |
| 2026-05-08 13:09 | 29.97852 | 120.23690 | 15212 ft | 406 kts | 241° |
| 2026-05-08 13:09 | 29.96475 | 120.20802 | 15740 ft | 415 kts | 241° |
| 2026-05-08 13:10 | 29.95079 | 120.17871 | 16423 ft | 419 kts | 241° |
| 2026-05-08 13:10 | 29.93670 | 120.14915 | 17121 ft | 422 kts | 241° |
| 2026-05-08 13:10 | 29.92268 | 120.11964 | 18063 ft | 418 kts | 241° |
| 2026-05-08 13:10 | 29.90874 | 120.09028 | 18927 ft | 417 kts | 241° |
| 2026-05-08 13:11 | 29.89478 | 120.06090 | 19470 ft | 417 kts | 241° |
| 2026-05-08 13:11 | 29.88086 | 120.03162 | 19676 ft | 417 kts | 241° |
| 2026-05-08 13:11 | 29.86690 | 120.00227 | 19703 ft | 418 kts | 241° |
| 2026-05-08 13:11 | 29.85255 | 119.97312 | 19699 ft | 420 kts | 238° |
| 2026-05-08 13:12 | 29.83567 | 119.94618 | 19839 ft | 420 kts | 232° |
| 2026-05-08 13:12 | 29.81740 | 119.92002 | 20548 ft | 418 kts | 231° |
| 2026-05-08 13:12 | 29.79910 | 119.89405 | 21524 ft | 415 kts | 231° |
| 2026-05-08 13:12 | 29.78099 | 119.86834 | 22431 ft | 413 kts | 231° |
| 2026-05-08 13:13 | 29.76288 | 119.84263 | 23140 ft | 416 kts | 231° |
| 2026-05-08 13:13 | 29.74444 | 119.81644 | 23510 ft | 427 kts | 231° |
| 2026-05-08 13:13 | 29.72535 | 119.78933 | 23605 ft | 445 kts | 231° |
| 2026-05-08 13:13 | 29.70541 | 119.76104 | 23604 ft | 464 kts | 231° |
| 2026-05-08 13:14 | 29.68486 | 119.73189 | 23600 ft | 471 kts | 231° |
| 2026-05-08 13:14 | 29.66435 | 119.70237 | 23599 ft | 471 kts | 233° |
| 2026-05-08 13:14 | 29.64693 | 119.67065 | 23602 ft | 469 kts | 243° |
| 2026-05-08 13:14 | 29.63510 | 119.63580 | 23594 ft | 469 kts | 255° |
| 2026-05-08 13:15 | 29.62959 | 119.59898 | 23600 ft | 468 kts | 266° |
| 2026-05-08 13:15 | 29.62914 | 119.56164 | 23601 ft | 467 kts | 270° |
| 2026-05-08 13:15 | 29.62707 | 119.52492 | 23599 ft | 467 kts | 261° |
| 2026-05-08 13:15 | 29.61860 | 119.48894 | 23598 ft | 467 kts | 248° |
| 2026-05-08 13:16 | 29.60331 | 119.45608 | 23603 ft | 467 kts | 235° |
| 2026-05-08 13:16 | 29.58343 | 119.42659 | 23601 ft | 467 kts | 230° |
| 2026-05-08 13:16 | 29.56208 | 119.39837 | 23600 ft | 468 kts | 228° |
| 2026-05-08 13:16 | 29.54011 | 119.37084 | 23600 ft | 468 kts | 227° |
| 2026-05-08 13:17 | 29.51794 | 119.34351 | 23601 ft | 468 kts | 227° |
| 2026-05-08 13:17 | 29.49568 | 119.31599 | 23766 ft | 473 kts | 227° |
| 2026-05-08 13:17 | 29.47340 | 119.28818 | 24533 ft | 471 kts | 227° |
| 2026-05-08 13:17 | 29.45883 | 119.26987 | 25178 ft | 467 kts | 228° |
| 2026-05-08 13:18 | 29.43706 | 119.24237 | 26022 ft | 465 kts | 228° |
| 2026-05-08 13:18 | 29.41536 | 119.21487 | 26782 ft | 463 kts | 228° |
| 2026-05-08 13:18 | 29.39380 | 119.18748 | 27493 ft | 463 kts | 228° |
| 2026-05-08 13:18 | 29.37223 | 119.16011 | 28214 ft | 461 kts | 228° |
| 2026-05-08 13:19 | 29.35067 | 119.13275 | 28726 ft | 466 kts | 228° |
| 2026-05-08 13:19 | 29.32871 | 119.10499 | 28995 ft | 475 kts | 228° |
| 2026-05-08 13:19 | 29.30628 | 119.07667 | 29224 ft | 483 kts | 228° |
| 2026-05-08 13:19 | 29.28351 | 119.04798 | 29449 ft | 491 kts | 228° |
| 2026-05-08 13:20 | 29.26034 | 119.01880 | 29717 ft | 497 kts | 228° |
| 2026-05-08 13:20 | 29.23702 | 118.98945 | 30161 ft | 499 kts | 228° |
| 2026-05-08 13:20 | 29.21369 | 118.96012 | 30655 ft | 499 kts | 228° |
| 2026-05-08 13:20 | 29.19030 | 118.93072 | 31090 ft | 500 kts | 228° |
| 2026-05-08 13:21 | 29.16704 | 118.90151 | 31281 ft | 506 kts | 228° |
| 2026-05-08 13:21 | 29.14326 | 118.87165 | 31535 ft | 509 kts | 228° |
| 2026-05-08 13:21 | 29.11941 | 118.84174 | 31875 ft | 509 kts | 227° |
| 2026-05-08 13:21 | 29.09553 | 118.81181 | 32184 ft | 509 kts | 227° |
| 2026-05-08 13:22 | 29.07167 | 118.78193 | 32520 ft | 509 kts | 227° |
| 2026-05-08 13:22 | 29.04779 | 118.75205 | 32833 ft | 508 kts | 227° |
| 2026-05-08 13:22 | 29.02396 | 118.72225 | 33177 ft | 506 kts | 227° |
| 2026-05-08 13:22 | 29.00021 | 118.69258 | 33505 ft | 505 kts | 227° |
| 2026-05-08 13:23 | 28.97651 | 118.66298 | 33835 ft | 504 kts | 227° |
| 2026-05-08 13:23 | 28.95287 | 118.63348 | 34142 ft | 503 kts | 227° |
| 2026-05-08 13:23 | 28.92950 | 118.60434 | 34440 ft | 502 kts | 227° |
| 2026-05-08 13:23 | 28.90595 | 118.57499 | 34746 ft | 501 kts | 227° |
| 2026-05-08 13:24 | 28.88240 | 118.54568 | 35027 ft | 500 kts | 227° |
| 2026-05-08 13:24 | 28.85878 | 118.51629 | 35295 ft | 500 kts | 227° |
| 2026-05-08 13:24 | 28.83529 | 118.48709 | 35552 ft | 500 kts | 227° |
| 2026-05-08 13:24 | 28.81177 | 118.45787 | 35798 ft | 500 kts | 227° |
| 2026-05-08 13:25 | 28.78824 | 118.42866 | 36020 ft | 500 kts | 227° |
| 2026-05-08 13:25 | 28.76467 | 118.39941 | 36094 ft | 500 kts | 227° |
| 2026-05-08 13:25 | 28.71796 | 118.34152 | 36100 ft | 499 kts | 227° |
| 2026-05-08 13:26 | 28.67093 | 118.28333 | 36100 ft | 499 kts | 227° |
| 2026-05-08 13:26 | 28.62386 | 118.22516 | 36101 ft | 499 kts | 227° |
| 2026-05-08 13:27 | 28.57677 | 118.16705 | 36100 ft | 499 kts | 227° |
| 2026-05-08 13:27 | 28.52973 | 118.10908 | 36097 ft | 499 kts | 227° |
| 2026-05-08 13:28 | 28.48262 | 118.05111 | 36100 ft | 499 kts | 227° |
| 2026-05-08 13:28 | 28.43544 | 117.99314 | 36101 ft | 499 kts | 227° |
| 2026-05-08 13:29 | 28.38807 | 117.93548 | 36100 ft | 499 kts | 226° |
| 2026-05-08 13:29 | 28.33994 | 117.87877 | 36100 ft | 499 kts | 226° |
| 2026-05-08 13:30 | 28.29165 | 117.82221 | 36100 ft | 499 kts | 226° |
| 2026-05-08 13:30 | 28.24368 | 117.76583 | 36100 ft | 499 kts | 226° |
| 2026-05-08 13:31 | 28.19554 | 117.70919 | 36100 ft | 499 kts | 226° |
| 2026-05-08 13:31 | 28.14739 | 117.65258 | 36099 ft | 499 kts | 226° |
| 2026-05-08 13:32 | 28.09910 | 117.59588 | 36100 ft | 500 kts | 226° |
| 2026-05-08 13:32 | 28.05103 | 117.53953 | 36101 ft | 500 kts | 226° |
| 2026-05-08 13:33 | 28.00268 | 117.48294 | 36100 ft | 501 kts | 226° |
| 2026-05-08 13:33 | 27.95405 | 117.42609 | 36102 ft | 503 kts | 226° |
| 2026-05-08 13:34 | 27.90541 | 117.36932 | 36099 ft | 503 kts | 226° |
| 2026-05-08 13:34 | 27.85667 | 117.31250 | 36100 ft | 503 kts | 226° |
| 2026-05-08 13:35 | 27.80789 | 117.25571 | 36100 ft | 504 kts | 226° |
| 2026-05-08 13:35 | 27.75907 | 117.19896 | 36099 ft | 503 kts | 226° |
| 2026-05-08 13:36 | 27.71018 | 117.14220 | 36101 ft | 504 kts | 226° |
| 2026-05-08 13:36 | 27.66141 | 117.08567 | 36100 ft | 502 kts | 226° |
| 2026-05-08 13:37 | 27.61270 | 117.02927 | 36100 ft | 502 kts | 226° |
| 2026-05-08 13:37 | 27.56426 | 116.97326 | 36100 ft | 502 kts | 226° |
| 2026-05-08 13:38 | 27.51548 | 116.91695 | 36102 ft | 503 kts | 226° |
| 2026-05-08 13:38 | 27.46702 | 116.86050 | 36099 ft | 500 kts | 226° |
| 2026-05-08 13:39 | 27.41885 | 116.80394 | 36099 ft | 499 kts | 226° |
| 2026-05-08 13:39 | 27.37075 | 116.74761 | 36100 ft | 499 kts | 226° |
| 2026-05-08 13:40 | 27.32253 | 116.69133 | 36100 ft | 499 kts | 226° |
| 2026-05-08 13:40 | 27.27425 | 116.63508 | 36101 ft | 500 kts | 226° |
| 2026-05-08 13:41 | 27.22590 | 116.57885 | 36100 ft | 499 kts | 226° |
| 2026-05-08 13:41 | 27.17790 | 116.52259 | 36099 ft | 499 kts | 227° |
| 2026-05-08 13:42 | 27.13085 | 116.46531 | 36100 ft | 499 kts | 227° |
| 2026-05-08 13:42 | 27.08415 | 116.40824 | 36100 ft | 499 kts | 227° |
| 2026-05-08 13:43 | 27.03703 | 116.35109 | 36101 ft | 499 kts | 227° |
| 2026-05-08 13:43 | 26.98969 | 116.29394 | 36100 ft | 499 kts | 227° |
| 2026-05-08 13:44 | 26.94234 | 116.23692 | 36099 ft | 500 kts | 227° |
| 2026-05-08 13:44 | 26.89520 | 116.18015 | 36099 ft | 501 kts | 227° |
| 2026-05-08 13:45 | 26.84806 | 116.12270 | 36101 ft | 501 kts | 227° |
| 2026-05-08 13:45 | 26.80101 | 116.06528 | 36100 ft | 500 kts | 227° |
| 2026-05-08 13:46 | 26.75391 | 116.00797 | 36100 ft | 500 kts | 227° |
| 2026-05-08 13:46 | 26.70671 | 115.95072 | 36100 ft | 500 kts | 227° |
| 2026-05-08 13:47 | 26.65941 | 115.89343 | 36100 ft | 500 kts | 227° |
| 2026-05-08 13:47 | 26.61217 | 115.83629 | 36100 ft | 501 kts | 227° |
| 2026-05-08 13:48 | 26.56486 | 115.77913 | 36100 ft | 501 kts | 227° |
| 2026-05-08 13:48 | 26.51776 | 115.72230 | 36101 ft | 502 kts | 227° |
| 2026-05-08 13:49 | 26.47034 | 115.66516 | 36100 ft | 501 kts | 227° |
| 2026-05-08 13:49 | 26.42295 | 115.60813 | 36101 ft | 501 kts | 227° |
| 2026-05-08 13:50 | 26.37553 | 115.55114 | 36100 ft | 500 kts | 227° |
| 2026-05-08 13:50 | 26.32819 | 115.49432 | 36099 ft | 500 kts | 227° |
| 2026-05-08 13:51 | 26.28085 | 115.43758 | 36101 ft | 500 kts | 227° |
| 2026-05-08 13:51 | 26.23345 | 115.38082 | 36099 ft | 500 kts | 227° |
| 2026-05-08 13:52 | 26.18606 | 115.32417 | 36100 ft | 499 kts | 227° |
| 2026-05-08 13:52 | 26.13871 | 115.26762 | 36099 ft | 499 kts | 227° |
| 2026-05-08 13:53 | 26.09134 | 115.21112 | 36101 ft | 499 kts | 227° |
| 2026-05-08 13:53 | 26.04389 | 115.15461 | 36100 ft | 499 kts | 227° |
| 2026-05-08 13:54 | 25.99672 | 115.09849 | 36101 ft | 499 kts | 227° |
| 2026-05-08 13:54 | 25.94919 | 115.04203 | 36100 ft | 501 kts | 227° |
| 2026-05-08 13:55 | 25.90162 | 114.98559 | 36101 ft | 500 kts | 227° |
| 2026-05-08 13:56 | 25.82822 | 114.90366 | 36100 ft | 499 kts | 218° |
| 2026-05-08 13:56 | 25.76769 | 114.86666 | 36099 ft | 499 kts | 199° |
| 2026-05-08 13:57 | 25.70052 | 114.84687 | 36099 ft | 500 kts | 193° |
| 2026-05-08 13:57 | 25.63250 | 114.83045 | 36100 ft | 501 kts | 192° |
| 2026-05-08 13:58 | 25.56435 | 114.81421 | 36100 ft | 501 kts | 192° |
| 2026-05-08 13:58 | 25.49625 | 114.79758 | 36101 ft | 501 kts | 193° |
| 2026-05-08 13:59 | 25.42817 | 114.78075 | 36101 ft | 501 kts | 193° |
| 2026-05-08 13:59 | 25.36061 | 114.76402 | 36099 ft | 500 kts | 193° |
| 2026-05-08 14:00 | 25.29264 | 114.74722 | 36100 ft | 501 kts | 193° |
| 2026-05-08 14:00 | 25.22459 | 114.73043 | 36099 ft | 501 kts | 193° |
| 2026-05-08 14:01 | 25.15651 | 114.71367 | 36100 ft | 501 kts | 193° |
| 2026-05-08 14:01 | 25.08836 | 114.69690 | 36100 ft | 502 kts | 193° |
| 2026-05-08 14:02 | 25.02017 | 114.68014 | 36101 ft | 501 kts | 193° |
| 2026-05-08 14:02 | 24.95199 | 114.66340 | 36101 ft | 502 kts | 193° |
| 2026-05-08 14:03 | 24.88411 | 114.64676 | 36099 ft | 503 kts | 193° |
| 2026-05-08 14:03 | 24.81584 | 114.63002 | 36099 ft | 502 kts | 193° |
| 2026-05-08 14:04 | 24.74770 | 114.61329 | 36100 ft | 502 kts | 193° |
| 2026-05-08 14:04 | 24.68178 | 114.58851 | 36103 ft | 501 kts | 207° |
| 2026-05-08 14:05 | 24.62037 | 114.55197 | 36100 ft | 502 kts | 210° |
| 2026-05-08 14:05 | 24.57001 | 114.51998 | 36100 ft | 503 kts | 210° |
| 2026-05-08 14:06 | 24.50941 | 114.48124 | 36100 ft | 504 kts | 210° |
| 2026-05-08 14:06 | 24.44867 | 114.44274 | 36100 ft | 503 kts | 210° |
| 2026-05-08 14:07 | 24.38786 | 114.40448 | 36101 ft | 503 kts | 210° |
| 2026-05-08 14:07 | 24.32705 | 114.36639 | 36100 ft | 503 kts | 210° |
| 2026-05-08 14:08 | 24.26638 | 114.32838 | 36100 ft | 502 kts | 210° |
| 2026-05-08 14:08 | 24.20581 | 114.29047 | 36100 ft | 502 kts | 210° |
| 2026-05-08 14:09 | 24.14518 | 114.25257 | 36100 ft | 501 kts | 210° |
| 2026-05-08 14:09 | 24.08485 | 114.21491 | 36102 ft | 503 kts | 210° |
| 2026-05-08 14:10 | 24.02412 | 114.17711 | 36100 ft | 501 kts | 210° |
| 2026-05-08 14:10 | 23.96363 | 114.13935 | 36100 ft | 501 kts | 210° |
| 2026-05-08 14:11 | 23.90299 | 114.10153 | 36100 ft | 502 kts | 210° |
| 2026-05-08 14:11 | 23.84240 | 114.06382 | 36100 ft | 501 kts | 210° |
| 2026-05-08 14:12 | 23.78219 | 114.02640 | 36100 ft | 502 kts | 210° |
| 2026-05-08 14:12 | 23.72147 | 113.98872 | 36101 ft | 502 kts | 210° |
| 2026-05-08 14:13 | 23.66081 | 113.95110 | 36100 ft | 501 kts | 210° |
| 2026-05-08 14:13 | 23.60007 | 113.91349 | 36101 ft | 502 kts | 210° |
| 2026-05-08 14:14 | 23.53931 | 113.87591 | 36099 ft | 502 kts | 210° |
| 2026-05-08 14:14 | 23.47493 | 113.84696 | 36100 ft | 501 kts | 198° |
| 2026-05-08 14:15 | 23.40851 | 113.82586 | 36099 ft | 500 kts | 195° |
| 2026-05-08 14:15 | 23.34144 | 113.80595 | 36100 ft | 499 kts | 195° |
| 2026-05-08 14:16 | 23.27431 | 113.78605 | 36100 ft | 499 kts | 195° |
| 2026-05-08 14:16 | 23.20734 | 113.76600 | 36100 ft | 499 kts | 195° |
| 2026-05-08 14:17 | 23.14044 | 113.74589 | 36101 ft | 499 kts | 195° |
| 2026-05-08 14:17 | 23.07348 | 113.72577 | 36100 ft | 499 kts | 195° |
| 2026-05-08 14:18 | 23.00653 | 113.70569 | 36100 ft | 499 kts | 195° |
| 2026-05-08 14:18 | 22.94004 | 113.68576 | 36100 ft | 499 kts | 195° |
| 2026-05-08 14:19 | 22.87305 | 113.66572 | 36100 ft | 499 kts | 195° |
| 2026-05-08 14:19 | 22.80618 | 113.64541 | 36100 ft | 499 kts | 196° |
| 2026-05-08 14:20 | 22.73935 | 113.62494 | 36100 ft | 499 kts | 196° |
| 2026-05-08 14:20 | 22.67248 | 113.60452 | 36100 ft | 499 kts | 196° |
| 2026-05-08 14:21 | 22.60562 | 113.58417 | 36100 ft | 499 kts | 196° |
| 2026-05-08 14:21 | 22.53875 | 113.56386 | 36100 ft | 499 kts | 196° |
| 2026-05-08 14:22 | 22.47186 | 113.54353 | 36100 ft | 499 kts | 196° |
| 2026-05-08 14:22 | 22.40501 | 113.52294 | 36100 ft | 499 kts | 196° |
| 2026-05-08 14:23 | 22.33822 | 113.50240 | 36099 ft | 499 kts | 196° |
| 2026-05-08 14:23 | 22.27394 | 113.47447 | 36101 ft | 498 kts | 210° |
| 2026-05-08 14:24 | 22.22062 | 113.42805 | 36100 ft | 498 kts | 229° |
| 2026-05-08 14:24 | 22.18371 | 113.36517 | 36104 ft | 497 kts | 246° |
| 2026-05-08 14:25 | 22.15727 | 113.29626 | 36099 ft | 497 kts | 249° |
| 2026-05-08 14:25 | 22.13213 | 113.22669 | 36100 ft | 498 kts | 248° |
| 2026-05-08 14:26 | 22.10467 | 113.15817 | 36100 ft | 498 kts | 245° |
| 2026-05-08 14:26 | 22.07582 | 113.09018 | 36100 ft | 498 kts | 245° |
| 2026-05-08 14:27 | 22.04711 | 113.02230 | 36099 ft | 498 kts | 245° |
| 2026-05-08 14:27 | 22.01921 | 112.95453 | 36100 ft | 498 kts | 247° |
| 2026-05-08 14:28 | 21.99260 | 112.88560 | 36101 ft | 498 kts | 248° |
| 2026-05-08 14:28 | 21.96611 | 112.81662 | 36100 ft | 498 kts | 248° |
| 2026-05-08 14:29 | 21.93893 | 112.74812 | 36100 ft | 498 kts | 246° |
| 2026-05-08 14:29 | 21.91120 | 112.67975 | 36099 ft | 498 kts | 246° |
| 2026-05-08 14:30 | 21.88341 | 112.61129 | 36099 ft | 499 kts | 246° |
| 2026-05-08 14:30 | 21.85569 | 112.54287 | 36100 ft | 498 kts | 246° |
| 2026-05-08 14:31 | 21.82829 | 112.47437 | 36099 ft | 498 kts | 247° |
| 2026-05-08 14:31 | 21.80125 | 112.40583 | 36101 ft | 498 kts | 247° |
| 2026-05-08 14:32 | 21.75702 | 112.30531 | 36094 ft | 492 kts | 238° |
| 2026-05-08 14:32 | 21.72734 | 112.23966 | 36100 ft | 489 kts | 240° |
| 2026-05-08 14:33 | 21.69971 | 112.17294 | 36100 ft | 488 kts | 242° |
| 2026-05-08 14:33 | 21.67298 | 112.10586 | 36100 ft | 488 kts | 242° |
| 2026-05-08 14:34 | 21.64634 | 112.03875 | 36100 ft | 487 kts | 242° |
| 2026-05-08 14:34 | 21.61959 | 111.97176 | 36099 ft | 488 kts | 242° |
| 2026-05-08 14:35 | 21.59291 | 111.90523 | 36100 ft | 487 kts | 242° |
| 2026-05-08 14:35 | 21.56486 | 111.83849 | 36117 ft | 485 kts | 235° |
| 2026-05-08 14:36 | 21.52497 | 111.78140 | 36092 ft | 483 kts | 225° |
| 2026-05-08 14:36 | 21.48093 | 111.72627 | 36099 ft | 488 kts | 224° |
| 2026-05-08 14:37 | 21.43638 | 111.67126 | 36101 ft | 488 kts | 224° |
| 2026-05-08 14:37 | 21.39210 | 111.61603 | 36100 ft | 488 kts | 225° |
| 2026-05-08 14:38 | 21.34800 | 111.56071 | 36101 ft | 488 kts | 225° |
| 2026-05-08 14:38 | 21.30388 | 111.50534 | 36100 ft | 488 kts | 225° |
| 2026-05-08 14:39 | 21.25977 | 111.45005 | 36101 ft | 488 kts | 225° |
| 2026-05-08 14:39 | 21.21561 | 111.39479 | 36100 ft | 488 kts | 225° |
| 2026-05-08 14:40 | 21.19365 | 111.36736 | 35896 ft | 480 kts | 225° |
| 2026-05-08 14:40 | 21.17202 | 111.34024 | 35534 ft | 479 kts | 225° |
| 2026-05-08 14:40 | 21.15012 | 111.31288 | 35184 ft | 486 kts | 225° |
| 2026-05-08 14:40 | 21.12799 | 111.28533 | 34799 ft | 489 kts | 225° |
| 2026-05-08 14:41 | 21.10592 | 111.25786 | 34435 ft | 485 kts | 225° |
| 2026-05-08 14:41 | 21.08393 | 111.23045 | 34063 ft | 484 kts | 225° |
| 2026-05-08 14:41 | 21.06234 | 111.20353 | 33702 ft | 482 kts | 225° |
| 2026-05-08 14:41 | 21.04059 | 111.17639 | 33320 ft | 479 kts | 225° |
| 2026-05-08 14:42 | 21.01894 | 111.14936 | 32943 ft | 476 kts | 225° |
| 2026-05-08 14:42 | 20.99741 | 111.12252 | 32577 ft | 474 kts | 225° |
| 2026-05-08 14:42 | 20.97604 | 111.09588 | 32188 ft | 471 kts | 225° |
| 2026-05-08 14:42 | 20.95374 | 111.07043 | 31862 ft | 465 kts | 216° |
| 2026-05-08 14:43 | 20.92723 | 111.05163 | 31469 ft | 453 kts | 203° |
| 2026-05-08 14:43 | 20.89930 | 111.03670 | 31082 ft | 445 kts | 200° |
| 2026-05-08 14:43 | 20.87109 | 111.02314 | 30691 ft | 443 kts | 199° |
| 2026-05-08 14:43 | 20.84275 | 111.01017 | 30312 ft | 442 kts | 198° |
| 2026-05-08 14:44 | 20.81443 | 110.99734 | 29935 ft | 441 kts | 198° |
| 2026-05-08 14:44 | 20.78634 | 110.98452 | 29547 ft | 438 kts | 199° |
| 2026-05-08 14:44 | 20.75844 | 110.97161 | 29180 ft | 436 kts | 199° |
| 2026-05-08 14:44 | 20.73070 | 110.95863 | 28810 ft | 433 kts | 199° |
| 2026-05-08 14:45 | 20.70323 | 110.94568 | 28440 ft | 430 kts | 199° |
| 2026-05-08 14:45 | 20.67586 | 110.93272 | 28056 ft | 428 kts | 199° |
| 2026-05-08 14:45 | 20.64913 | 110.92005 | 27691 ft | 425 kts | 199° |
| 2026-05-08 14:45 | 20.62223 | 110.90707 | 27304 ft | 424 kts | 201° |
| 2026-05-08 14:46 | 20.59583 | 110.89327 | 26933 ft | 421 kts | 201° |
| 2026-05-08 14:46 | 20.56955 | 110.87973 | 26567 ft | 418 kts | 201° |
| 2026-05-08 14:46 | 20.54328 | 110.86662 | 26201 ft | 415 kts | 200° |
| 2026-05-08 14:46 | 20.51711 | 110.85388 | 26024 ft | 413 kts | 199° |
| 2026-05-08 14:47 | 20.48995 | 110.84457 | 25985 ft | 406 kts | 186° |
| 2026-05-08 14:47 | 20.46218 | 110.84102 | 25490 ft | 399 kts | 180° |
| 2026-05-08 14:47 | 20.43458 | 110.83900 | 24883 ft | 396 kts | 179° |
| 2026-05-08 14:47 | 20.40731 | 110.83708 | 24348 ft | 391 kts | 179° |
| 2026-05-08 14:48 | 20.38030 | 110.83511 | 23794 ft | 386 kts | 179° |
| 2026-05-08 14:48 | 20.35361 | 110.83311 | 23229 ft | 383 kts | 179° |
| 2026-05-08 14:48 | 20.32715 | 110.83109 | 22667 ft | 379 kts | 180° |
| 2026-05-08 14:48 | 20.30121 | 110.82909 | 22087 ft | 376 kts | 180° |
| 2026-05-08 14:49 | 20.27518 | 110.82709 | 21507 ft | 372 kts | 180° |
| 2026-05-08 14:49 | 20.24946 | 110.82510 | 20939 ft | 369 kts | 180° |
| 2026-05-08 14:49 | 20.22390 | 110.82312 | 20350 ft | 366 kts | 180° |
| 2026-05-08 14:49 | 20.19866 | 110.82117 | 19777 ft | 363 kts | 180° |
| 2026-05-08 14:50 | 20.17357 | 110.81926 | 19208 ft | 359 kts | 179° |
| 2026-05-08 14:50 | 20.14872 | 110.81741 | 18621 ft | 356 kts | 180° |
| 2026-05-08 14:50 | 20.12403 | 110.81547 | 18050 ft | 353 kts | 180° |
| 2026-05-08 14:50 | 20.09965 | 110.81355 | 17474 ft | 350 kts | 180° |
| 2026-05-08 14:51 | 20.07548 | 110.81166 | 16904 ft | 347 kts | 180° |
| 2026-05-08 14:51 | 20.05146 | 110.80980 | 16332 ft | 344 kts | 180° |
| 2026-05-08 14:51 | 20.02766 | 110.80800 | 15756 ft | 341 kts | 180° |
| 2026-05-08 14:51 | 20.00409 | 110.80601 | 15241 ft | 338 kts | 180° |
| 2026-05-08 14:52 | 19.98070 | 110.80392 | 15023 ft | 338 kts | 180° |
| 2026-05-08 14:52 | 19.93390 | 110.79992 | 14998 ft | 337 kts | 180° |
| 2026-05-08 14:52 | 19.91087 | 110.79797 | 15000 ft | 337 kts | 180° |
| 2026-05-08 14:53 | 19.88762 | 110.79415 | 14982 ft | 341 kts | 192° |
| 2026-05-08 14:53 | 19.86604 | 110.78377 | 14968 ft | 342 kts | 209° |
| 2026-05-08 14:53 | 19.84800 | 110.76741 | 14452 ft | 341 kts | 225° |
| 2026-05-08 14:53 | 19.83909 | 110.75375 | 14108 ft | 337 kts | 237° |
| 2026-05-08 14:54 | 19.83051 | 110.72259 | 13503 ft | 326 kts | 262° |
| 2026-05-08 14:54 | 19.83125 | 110.70683 | 13217 ft | 321 kts | 275° |
| 2026-05-08 14:54 | 19.83764 | 110.68446 | 12913 ft | 311 kts | 284° |
| 2026-05-08 14:54 | 19.84052 | 110.65501 | 12457 ft | 297 kts | 266° |
| 2026-05-08 14:55 | 19.84089 | 110.64045 | 12049 ft | 299 kts | 267° |
| 2026-05-08 14:55 | 19.84190 | 110.61846 | 11547 ft | 297 kts | 269° |
| 2026-05-08 14:55 | 19.84342 | 110.59674 | 11080 ft | 294 kts | 270° |
| 2026-05-08 14:55 | 19.84523 | 110.57520 | 10591 ft | 291 kts | 270° |
| 2026-05-08 14:56 | 19.84624 | 110.55386 | 10127 ft | 288 kts | 265° |
| 2026-05-08 14:56 | 19.84619 | 110.53264 | 9588 ft | 287 kts | 264° |
| 2026-05-08 14:56 | 19.84603 | 110.51175 | 9085 ft | 285 kts | 264° |
| 2026-05-08 14:56 | 19.84590 | 110.49076 | 8599 ft | 283 kts | 265° |
| 2026-05-08 14:57 | 19.84580 | 110.46995 | 8102 ft | 281 kts | 265° |
| 2026-05-08 14:57 | 19.84573 | 110.44924 | 7607 ft | 279 kts | 265° |
| 2026-05-08 14:57 | 19.84567 | 110.42876 | 7181 ft | 276 kts | 265° |
| 2026-05-08 14:57 | 19.84565 | 110.40837 | 7038 ft | 276 kts | 265° |
| 2026-05-08 14:58 | 19.84558 | 110.38796 | 7027 ft | 276 kts | 265° |
| 2026-05-08 14:58 | 19.84550 | 110.36756 | 7025 ft | 276 kts | 265° |
| 2026-05-08 14:58 | 19.84543 | 110.34722 | 7030 ft | 276 kts | 265° |
| 2026-05-08 14:58 | 19.84536 | 110.32684 | 7028 ft | 276 kts | 265° |
| 2026-05-08 14:59 | 19.84530 | 110.30658 | 7023 ft | 269 kts | 265° |
| 2026-05-08 14:59 | 19.84555 | 110.26980 | 7018 ft | 234 kts | 265° |
| 2026-05-08 14:59 | 19.84572 | 110.25257 | 6958 ft | 233 kts | 265° |
| 2026-05-08 15:00 | 19.84574 | 110.23522 | 6525 ft | 237 kts | 265° |
| 2026-05-08 15:00 | 19.84576 | 110.21817 | 6128 ft | 227 kts | 265° |
| 2026-05-08 15:00 | 19.84589 | 110.20163 | 5749 ft | 215 kts | 265° |
| 2026-05-08 15:00 | 19.84620 | 110.18620 | 5398 ft | 210 kts | 268° |
| 2026-05-08 15:01 | 19.84853 | 110.17080 | 5020 ft | 213 kts | 280° |
| 2026-05-08 15:01 | 19.85423 | 110.15632 | 4631 ft | 213 kts | 295° |
| 2026-05-08 15:01 | 19.86332 | 110.14372 | 4260 ft | 212 kts | 309° |
| 2026-05-08 15:01 | 19.87484 | 110.13413 | 3896 ft | 214 kts | 323° |
| 2026-05-08 15:02 | 19.88833 | 110.12782 | 3522 ft | 212 kts | 338° |
| 2026-05-08 15:02 | 19.90279 | 110.12537 | 3168 ft | 209 kts | 353° |
| 2026-05-08 15:02 | 19.91705 | 110.12688 | 3031 ft | 200 kts | 7° |
| 2026-05-08 15:02 | 19.93005 | 110.13106 | 3028 ft | 192 kts | 13° |
| 2026-05-08 15:03 | 19.94260 | 110.13581 | 3006 ft | 194 kts | 20° |
| 2026-05-08 15:03 | 19.95225 | 110.14563 | 3023 ft | 194 kts | 57° |
| 2026-05-08 15:03 | 19.95522 | 110.15933 | 3027 ft | 188 kts | 81° |
| 2026-05-08 15:03 | 19.95550 | 110.17304 | 3026 ft | 183 kts | 84° |
| 2026-05-08 15:04 | 19.95523 | 110.18651 | 3026 ft | 183 kts | 89° |
| 2026-05-08 15:04 | 19.95406 | 110.19992 | 3030 ft | 180 kts | 88° |
| 2026-05-08 15:04 | 19.95368 | 110.21276 | 3023 ft | 166 kts | 85° |
| 2026-05-08 15:04 | 19.95366 | 110.22475 | 3024 ft | 160 kts | 84° |
| 2026-05-08 15:05 | 19.95394 | 110.23639 | 3027 ft | 159 kts | 82° |
| 2026-05-08 15:05 | 19.95426 | 110.24819 | 3029 ft | 160 kts | 83° |
| 2026-05-08 15:05 | 19.95437 | 110.26002 | 3029 ft | 160 kts | 84° |
| 2026-05-08 15:05 | 19.95431 | 110.27186 | 3027 ft | 160 kts | 85° |
| 2026-05-08 15:06 | 19.95417 | 110.28368 | 3024 ft | 160 kts | 85° |
| 2026-05-08 15:06 | 19.95381 | 110.29556 | 2894 ft | 161 kts | 87° |
| 2026-05-08 15:06 | 19.95344 | 110.30732 | 2671 ft | 156 kts | 84° |
| 2026-05-08 15:06 | 19.95353 | 110.31849 | 2459 ft | 147 kts | 83° |
| 2026-05-08 15:07 | 19.95362 | 110.32917 | 2265 ft | 144 kts | 84° |
| 2026-05-08 15:07 | 19.95366 | 110.33977 | 2073 ft | 143 kts | 84° |
| 2026-05-08 15:07 | 19.95370 | 110.35036 | 1877 ft | 143 kts | 84° |
| 2026-05-08 15:07 | 19.95373 | 110.36092 | 1693 ft | 143 kts | 84° |
| 2026-05-08 15:08 | 19.95376 | 110.37147 | 1503 ft | 142 kts | 84° |
| 2026-05-08 15:08 | 19.95377 | 110.37845 | 1376 ft | 142 kts | 84° |
| 2026-05-08 15:08 | 19.95377 | 110.39249 | 1121 ft | 142 kts | 84° |
| 2026-05-08 15:08 | 19.95377 | 110.40297 | 937 ft | 141 kts | 84° |
| 2026-05-08 15:09 | 19.95378 | 110.41335 | 753 ft | 142 kts | 84° |
| 2026-05-08 15:09 | 19.95379 | 110.42394 | 563 ft | 144 kts | 84° |
| 2026-05-08 15:09 | 19.95380 | 110.43451 | 382 ft | 145 kts | 85° |
| 2026-05-08 15:09 | 19.95376 | 110.44508 | 222 ft | 143 kts | 84° |
| 2026-05-08 15:10 | 19.95370 | 110.45556 | 66 ft | 138 kts | 85° |
| 2026-05-08 15:10 | 19.95373 | 110.46464 | 57 ft | 96 kts | 88° |
| 2026-05-08 15:10 | 19.95377 | 110.46851 | 64 ft | 13 kts | 90° |
| 2026-05-08 15:10 | 19.95364 | 110.46952 | 60 ft | 14 kts | 107° |
| 2026-05-08 15:11 | 19.95328 | 110.47040 | 59 ft | 12 kts | 117° |
| 2026-05-08 15:11 | 19.95285 | 110.47120 | 58 ft | 11 kts | 129° |
| 2026-05-08 15:11 | 19.95218 | 110.47123 | 60 ft | 10 kts | 230° |
| 2026-05-08 15:11 | 19.95207 | 110.47037 | 59 ft | 12 kts | 270° |
| 2026-05-08 15:12 | 19.95207 | 110.46975 | 66 ft | 1 kts | 270° |
| 2026-05-08 15:12 | 19.95207 | 110.46952 | 66 ft | 5 kts | 270° |
| 2026-05-08 15:12 | 19.95207 | 110.46933 | 66 ft | 0 kts | 270° |
| 2026-05-08 15:12 | 19.95207 | 110.46894 | 60 ft | 11 kts | 270° |
| 2026-05-08 15:13 | 19.95206 | 110.46771 | 65 ft | 22 kts | 270° |
| 2026-05-08 15:13 | 19.95206 | 110.46573 | 64 ft | 31 kts | 270° |
| 2026-05-08 15:13 | 19.95192 | 110.46372 | 57 ft | 19 kts | 233° |
| 2026-05-08 15:13 | 19.95113 | 110.46287 | 55 ft | 17 kts | 223° |
| 2026-05-08 15:14 | 19.95064 | 110.46171 | 58 ft | 22 kts | 270° |
| 2026-05-08 15:14 | 19.95062 | 110.46025 | 58 ft | 21 kts | 263° |
| 2026-05-08 15:14 | 19.95001 | 110.45921 | 57 ft | 2 kts | 224° |
| 2026-05-08 15:14 | 19.94961 | 110.45877 | 56 ft | 13 kts | 226° |
| 2026-05-08 15:15 | 19.94917 | 110.45846 | 57 ft | 3 kts | 203° |
| 2026-05-08 15:15 | 19.94899 | 110.45842 | 62 ft | 0 kts | 188° |
| 2026-05-08 15:15 | 19.94888 | 110.45841 | 57 ft | 3 kts | 184° |
| 2026-05-08 15:15 | 19.94874 | 110.45840 | 60 ft | 3 kts | 183° |
| 2026-05-08 15:16 | 19.94869 | 110.45841 | 60 ft | 0 kts | 181° |